Marion Reef, Australia
Current Conditions -  °F | °C
As of 11:30 PM on Monday 20 Oct 2014 (Local Time) from YBHM Reporting Station
Scattered Clouds Scattered Clouds  
Wind Chill: 73°   Ceiling: Unl
Heat Index: 73°   Visibility: 6mi
Dew Point: 63°   Wind: 29mph
Humidity: 69%   Direction: 110°ESE
Pressure: 30.15"   Gusts: NA
Location:  19.08°S, 152.38°E
Report Text: YBHM 201330Z AUTO 11025KT 9999 // SCT024 23/17 Q1021
Loading
Personal Weather Stations






























Interactive Weather Map
Tropical Storm Tracking
New forecast layout! Learn more

10-Day Weather Forecast

Advertisements
Track Severe Weather on mobile